ADDS METAR Data INFO
IDs: Format: Raw Decoded Include TAF

Data at: 2214 UTC 21 Jan 2018

KCKB 212153Z 21006KT 10SM SCT027 BKN040 13/07 A3010 RMK AO2 SLP189 T01280067
KCKB 212112Z 19006KT 10SM SCT028 OVC070 13/07 A3010 RMK AO2 T01330067
KCKB 212053Z 20006KT 10SM OVC027 13/07 A3010 RMK AO2 SLP190 T01330067 55010
KCKB 211953Z 21007KT 10SM OVC024 13/07 A3010 RMK AO2 SLP189 T01330067
KCKB 211853Z 19006KT 10SM OVC026 13/06 A3011 RMK AO2 SLP192 T01280061
KCKB 211753Z 19004KT 10SM OVC026 11/07 A3014 RMK AO2 RAB08E49 SLP202 P0000 60000 T01110067 10117 20078 58015
KCKB 211653Z 21006KT 10SM BKN025 OVC031 12/06 A3016 RMK AO2 SLP211 T01170061
KCKB 211651Z 20005KT 10SM BKN025 OVC031 12/06 A3016 RMK AO2
KCKB 211553Z 20004KT 10SM BKN030 OVC036 11/06 A3018 RMK AO2 SLP217 T01060061
KCKB 211453Z 19006KT 10SM OVC060 09/06 A3018 RMK AO2 SLP216 60000 T00940056 50003
KCKB 211443Z 19006KT 10SM FEW022 OVC060 09/06 A3018 RMK AO2 T00940061
KCKB 211353Z 17004KT 10SM BKN023 OVC034 09/06 A3018 RMK AO2 SLP218 T00890061
KCKB 211326Z 18006KT 10SM BKN025 OVC033 08/06 A3017 RMK AO2 T00830061
KCKB 211253Z 18004KT 10SM FEW016 OVC034 08/06 A3017 RMK AO2 RAE34 SLP215 P0000 T00830061
KCKB 211153Z 25007KT 210V280 5SM -RA BR BKN023 OVC030 08/06 A3017 RMK AO2 RAB49 SLP214 P0000 60000 T00830061 10089 20072 53003
KCKB 211145Z AUTO 00000KT 10SM BKN023 OVC034 08/06 A3017 RMK AO2 T00830061
KCKB 211053Z AUTO 18004KT 10SM BKN034 OVC065 08/06 A3015 RMK AO2 SLP209 T00830061
KCKB 210953Z AUTO 17003KT 10SM BKN030 OVC035 08/07 A3015 RMK AO2 RAE24 SLP208 P0000 T00780067
KCKB 210920Z AUTO 14003KT 6SM -RA BR SCT007 OVC032 07/06 A3015 RMK AO2 P0000 T00720061
KCKB 210853Z AUTO 00000KT 4SM -RA BR OVC008 07/06 A3016 RMK AO2 RAE08B40 SLP210 P0000 60000 T00720061 51002
KCKB 210817Z AUTO 00000KT 10SM OVC008 08/06 A3016 RMK AO2 RAE08 CIG 007V013 P0000 T00780061
KCKB 210753Z AUTO 19005KT 6SM -RA BR BKN010 OVC015 08/06 A3015 RMK AO2 RAE0654B03 CIG 007V014 SLP208 P0000 T00780056
KCKB 210744Z AUTO 20004KT 6SM -RA BR BKN012 OVC017 08/06 A3016 RMK AO2 RAE0654B03 P0000 T00780056
KCKB 210722Z AUTO 19005KT 10SM OVC016 08/06 A3016 RMK AO2 RAE0654B03E19 P0000 T00780056
KCKB 210702Z AUTO 22006KT 9SM OVC014 08/05 A3016 RMK AO2 RAE0654 P0000 T00780050
KCKB 210653Z AUTO 22006KT 9SM -RA OVC017 08/05 A3016 RMK AO2 RAB44 SLP210 P0000 T00780050
KCKB 210553Z AUTO 21005KT 10SM OVC028 08/03 A3015 RMK AO2 SLP208 T00830033 10089 20050 58001
KCKB 210453Z AUTO 22005KT 10SM BKN024 OVC048 08/03 A3015 RMK AO2 SLP208 T00830028 401110028
KCKB 210353Z AUTO 23006KT 10SM OVC041 08/02 A3015 RMK AO2 SLP209 T00830022
KCKB 210331Z 19005KT 10SM BKN031 OVC039 08/02 A3015 RMK AO2 T00830022
KCKB 210300Z 21006KT 10SM OVC026 08/02 A3015 RMK AO2 T00830022
KCKB 210253Z 21006KT 10SM FEW026 08/02 A3015 RMK AO2 SLP210 T00830017 51014
KCKB 210153Z 23007KT 10SM FEW026 07/01 A3014 RMK AO2 SLP207 T00670006
KCKB 210053Z 19004KT 10SM CLR 06/00 A3012 RMK AO2 SLP202 T00560000
KCKB 202353Z 21004KT 10SM CLR 07/00 A3011 RMK AO2 SLP197 T00720000 10111 20072 51019
KCKB 202253Z 22006KT 10SM CLR 08/00 A3009 RMK AO2 SLP190 T00830000